Terminal Aerodrome Forecast
Issued by NWS Chicago, IL

Home | Current Version | Previous Version | Graphics & Text | Print | Product List | Glossary On
Versions: 1 2 3 4 5 6 7 8 9 10 11 12 13 14 15 16 17 18 19 20 21 22 23 24 25 26 27 28
056
FTUS43 KLOT 220308 AAB
TAFRFD
TAF AMD
KRFD 220308Z 2203/2224 23009KT P6SM VCTS SCT035 BKN060CB
      TEMPO 2204/2208 2SM TSRA OVC015CB
     FM220800 25008KT 6SM -SHRA BR OVC020
     FM221300 29011KT P6SM BKN015
     FM221600 34014G20KT P6SM SCT035=

USA.gov is the U.S. government's official web portal to all federal, state and local government web resources and services.